sensor_id;sensor_type;location;lat;lon;timestamp;temperature;humidity
6110;DHT22;3085;49.444;11.054;2023-02-28T00:01:20;-0.20;99.90
6110;DHT22;3085;49.444;11.054;2023-02-28T00:03:47;0.10;99.90
6110;DHT22;3085;49.444;11.054;2023-02-28T00:06:14;1.20;99.90
6110;DHT22;3085;49.444;11.054;2023-02-28T00:08:41;-0.40;99.90
6110;DHT22;3085;49.444;11.054;2023-02-28T00:11:10;-0.50;99.90
6110;DHT22;3085;49.444;11.054;2023-02-28T00:13:41;-0.40;99.90
6110;DHT22;3085;49.444;11.054;2023-02-28T00:16:11;-0.40;99.90
6110;DHT22;3085;49.444;11.054;2023-02-28T00:18:38;-0.50;99.90
6110;DHT22;3085;49.444;11.054;2023-02-28T00:21:07;-0.50;99.90
6110;DHT22;3085;49.444;11.054;2023-02-28T00:23:34;-0.40;99.90
6110;DHT22;3085;49.444;11.054;2023-02-28T00:26:01;-0.40;99.90
6110;DHT22;3085;49.444;11.054;2023-02-28T00:28:28;-0.40;99.90
6110;DHT22;3085;49.444;11.054;2023-02-28T00:30:55;-0.40;99.90
6110;DHT22;3085;49.444;11.054;2023-02-28T00:33:24;-0.50;99.90
6110;DHT22;3085;49.444;11.054;2023-02-28T00:35:51;-0.50;99.90
6110;DHT22;3085;49.444;11.054;2023-02-28T00:38:18;-0.50;99.90
6110;DHT22;3085;49.444;11.054;2023-02-28T00:40:44;-0.50;99.90
6110;DHT22;3085;49.444;11.054;2023-02-28T00:43:12;-0.50;99.90
6110;DHT22;3085;49.444;11.054;2023-02-28T00:45:38;-0.40;99.90
6110;DHT22;3085;49.444;11.054;2023-02-28T00:48:05;-0.40;99.90
6110;DHT22;3085;49.444;11.054;2023-02-28T00:50:34;-0.50;99.90
6110;DHT22;3085;49.444;11.054;2023-02-28T00:53:01;0.80;99.90
6110;DHT22;3085;49.444;11.054;2023-02-28T00:55:27;-0.40;99.90
6110;DHT22;3085;49.444;11.054;2023-02-28T00:57:54;-0.50;99.90
6110;DHT22;3085;49.444;11.054;2023-02-28T01:00:21;-0.50;99.90
6110;DHT22;3085;49.444;11.054;2023-02-28T01:02:48;-0.50;99.90
6110;DHT22;3085;49.444;11.054;2023-02-28T01:05:15;-0.40;99.90
6110;DHT22;3085;49.444;11.054;2023-02-28T01:07:43;-0.40;99.90
6110;DHT22;3085;49.444;11.054;2023-02-28T01:10:10;0.00;99.90
6110;DHT22;3085;49.444;11.054;2023-02-28T01:12:37;-0.50;99.90
6110;DHT22;3085;49.444;11.054;2023-02-28T01:15:05;-0.50;99.90
6110;DHT22;3085;49.444;11.054;2023-02-28T01:17:32;-0.50;99.90
6110;DHT22;3085;49.444;11.054;2023-02-28T01:19:59;-0.50;99.90
6110;DHT22;3085;49.444;11.054;2023-02-28T01:22:26;-0.50;99.90
6110;DHT22;3085;49.444;11.054;2023-02-28T01:24:55;-0.50;99.90
6110;DHT22;3085;49.444;11.054;2023-02-28T01:27:22;-0.50;99.90
6110;DHT22;3085;49.444;11.054;2023-02-28T01:29:50;-2.20;99.90
6110;DHT22;3085;49.444;11.054;2023-02-28T01:32:17;-0.50;99.90
6110;DHT22;3085;49.444;11.054;2023-02-28T01:34:43;-0.60;99.90
6110;DHT22;3085;49.444;11.054;2023-02-28T01:37:10;0.50;99.90
6110;DHT22;3085;49.444;11.054;2023-02-28T01:39:37;-0.60;99.90
6110;DHT22;3085;49.444;11.054;2023-02-28T01:42:05;-0.50;99.90
6110;DHT22;3085;49.444;11.054;2023-02-28T01:44:59;-0.60;99.90
6110;DHT22;3085;49.444;11.054;2023-02-28T01:47:29;-0.60;99.90
6110;DHT22;3085;49.444;11.054;2023-02-28T01:49:58;-0.60;99.90
6110;DHT22;3085;49.444;11.054;2023-02-28T01:52:26;-0.60;99.90
6110;DHT22;3085;49.444;11.054;2023-02-28T01:54:55;-0.60;99.90
6110;DHT22;3085;49.444;11.054;2023-02-28T01:57:29;-0.60;99.90
6110;DHT22;3085;49.444;11.054;2023-02-28T01:59:58;-0.60;99.90
6110;DHT22;3085;49.444;11.054;2023-02-28T02:02:27;0.00;99.90
6110;DHT22;3085;49.444;11.054;2023-02-28T02:04:57;-0.60;99.90
6110;DHT22;3085;49.444;11.054;2023-02-28T02:07:30;-0.70;99.90
6110;DHT22;3085;49.444;11.054;2023-02-28T02:10:04;-0.80;99.90
6110;DHT22;3085;49.444;11.054;2023-02-28T02:12:44;-0.70;99.90
6110;DHT22;3085;49.444;11.054;2023-02-28T02:15:16;-0.70;99.90
6110;DHT22;3085;49.444;11.054;2023-02-28T02:17:47;-0.70;99.90
6110;DHT22;3085;49.444;11.054;2023-02-28T02:20:59;-0.60;99.90
6110;DHT22;3085;49.444;11.054;2023-02-28T02:23:49;-0.70;99.90
6110;DHT22;3085;49.444;11.054;2023-02-28T02:26:45;-0.70;99.90
6110;DHT22;3085;49.444;11.054;2023-02-28T02:29:44;-0.70;99.90
6110;DHT22;3085;49.444;11.054;2023-02-28T02:32:23;-0.80;99.90
6110;DHT22;3085;49.444;11.054;2023-02-28T02:35:04;-0.80;99.90
6110;DHT22;3085;49.444;11.054;2023-02-28T02:37:39;-0.70;99.90
6110;DHT22;3085;49.444;11.054;2023-02-28T02:40:13;-0.80;99.90
6110;DHT22;3085;49.444;11.054;2023-02-28T02:42:49;-0.80;99.90
6110;DHT22;3085;49.444;11.054;2023-02-28T02:45:22;-0.90;99.90
6110;DHT22;3085;49.444;11.054;2023-02-28T02:47:52;-0.90;99.90
6110;DHT22;3085;49.444;11.054;2023-02-28T02:50:24;-0.90;99.90
6110;DHT22;3085;49.444;11.054;2023-02-28T02:52:55;-0.90;99.90
6110;DHT22;3085;49.444;11.054;2023-02-28T02:55:23;-0.90;99.90
6110;DHT22;3085;49.444;11.054;2023-02-28T02:57:54;-1.30;99.90
6110;DHT22;3085;49.444;11.054;2023-02-28T03:00:27;-0.90;99.90
6110;DHT22;3085;49.444;11.054;2023-02-28T03:02:57;-0.80;99.90
6110;DHT22;3085;49.444;11.054;2023-02-28T03:05:27;-0.90;99.90
6110;DHT22;3085;49.444;11.054;2023-02-28T03:07:56;-0.80;99.90
6110;DHT22;3085;49.444;11.054;2023-02-28T03:10:35;-0.90;99.90
6110;DHT22;3085;49.444;11.054;2023-02-28T03:19:06;-0.30;99.90
6110;DHT22;3085;49.444;11.054;2023-02-28T03:21:43;0.50;99.90
6110;DHT22;3085;49.444;11.054;2023-02-28T03:24:15;-1.00;99.90
6110;DHT22;3085;49.444;11.054;2023-02-28T03:26:46;-1.00;99.90
6110;DHT22;3085;49.444;11.054;2023-02-28T03:29:23;-1.00;99.90
6110;DHT22;3085;49.444;11.054;2023-02-28T03:31:54;-1.80;99.90
6110;DHT22;3085;49.444;11.054;2023-02-28T03:34:26;-1.00;99.90
6110;DHT22;3085;49.444;11.054;2023-02-28T03:37:01;-0.90;99.90
6110;DHT22;3085;49.444;11.054;2023-02-28T03:39:34;-0.40;99.90
6110;DHT22;3085;49.444;11.054;2023-02-28T03:42:07;-1.00;99.90
6110;DHT22;3085;49.444;11.054;2023-02-28T03:44:38;-0.90;99.90
6110;DHT22;3085;49.444;11.054;2023-02-28T03:47:10;-0.90;99.90
6110;DHT22;3085;49.444;11.054;2023-02-28T03:49:41;-0.90;99.90
6110;DHT22;3085;49.444;11.054;2023-02-28T03:52:11;-0.40;99.90
6110;DHT22;3085;49.444;11.054;2023-02-28T03:54:42;-1.00;99.90
6110;DHT22;3085;49.444;11.054;2023-02-28T03:57:13;-1.00;99.90
6110;DHT22;3085;49.444;11.054;2023-02-28T03:59:46;-1.00;99.90
6110;DHT22;3085;49.444;11.054;2023-02-28T04:02:14;-0.90;99.90
6110;DHT22;3085;49.444;11.054;2023-02-28T04:04:41;-0.90;99.90
6110;DHT22;3085;49.444;11.054;2023-02-28T04:07:16;-1.00;99.90
6110;DHT22;3085;49.444;11.054;2023-02-28T04:09:43;-1.00;99.90
6110;DHT22;3085;49.444;11.054;2023-02-28T04:12:10;-0.20;99.90
6110;DHT22;3085;49.444;11.054;2023-02-28T04:14:37;-0.90;99.90
6110;DHT22;3085;49.444;11.054;2023-02-28T04:17:04;-0.90;99.90
6110;DHT22;3085;49.444;11.054;2023-02-28T04:19:31;-0.60;99.90
6110;DHT22;3085;49.444;11.054;2023-02-28T04:21:58;-1.00;99.90
6110;DHT22;3085;49.444;11.054;2023-02-28T04:24:27;-1.00;99.90
6110;DHT22;3085;49.444;11.054;2023-02-28T04:26:56;-1.00;99.90
6110;DHT22;3085;49.444;11.054;2023-02-28T04:29:24;-0.80;99.90
6110;DHT22;3085;49.444;11.054;2023-02-28T04:31:52;-0.90;99.90
6110;DHT22;3085;49.444;11.054;2023-02-28T04:34:20;-0.80;99.90
6110;DHT22;3085;49.444;11.054;2023-02-28T04:36:48;-0.90;99.90
6110;DHT22;3085;49.444;11.054;2023-02-28T04:39:16;-0.80;99.90
6110;DHT22;3085;49.444;11.054;2023-02-28T04:41:45;-0.80;99.90
6110;DHT22;3085;49.444;11.054;2023-02-28T04:44:13;-0.80;99.90
6110;DHT22;3085;49.444;11.054;2023-02-28T04:46:40;-0.90;99.90
6110;DHT22;3085;49.444;11.054;2023-02-28T04:49:08;-0.90;99.90
6110;DHT22;3085;49.444;11.054;2023-02-28T04:51:36;0.10;99.90
6110;DHT22;3085;49.444;11.054;2023-02-28T04:54:06;-0.70;99.90
6110;DHT22;3085;49.444;11.054;2023-02-28T04:56:33;-0.70;99.90
6110;DHT22;3085;49.444;11.054;2023-02-28T04:59:03;-0.80;99.90
6110;DHT22;3085;49.444;11.054;2023-02-28T05:01:32;-0.80;99.90
6110;DHT22;3085;49.444;11.054;2023-02-28T05:04:00;-0.70;99.90
6110;DHT22;3085;49.444;11.054;2023-02-28T05:06:30;-0.70;99.90
6110;DHT22;3085;49.444;11.054;2023-02-28T05:08:58;-0.80;99.90
6110;DHT22;3085;49.444;11.054;2023-02-28T05:11:27;-0.80;99.90
6110;DHT22;3085;49.444;11.054;2023-02-28T05:13:59;-0.80;99.90
6110;DHT22;3085;49.444;11.054;2023-02-28T05:16:27;-1.00;99.90
6110;DHT22;3085;49.444;11.054;2023-02-28T05:18:54;-0.80;99.90
6110;DHT22;3085;49.444;11.054;2023-02-28T05:21:25;-1.00;99.90
6110;DHT22;3085;49.444;11.054;2023-02-28T05:23:53;-0.90;99.90
6110;DHT22;3085;49.444;11.054;2023-02-28T05:26:20;-1.10;99.90
6110;DHT22;3085;49.444;11.054;2023-02-28T05:28:47;-0.20;99.90
6110;DHT22;3085;49.444;11.054;2023-02-28T05:31:14;-0.90;99.90
6110;DHT22;3085;49.444;11.054;2023-02-28T05:33:42;-0.80;99.90
6110;DHT22;3085;49.444;11.054;2023-02-28T05:36:10;0.20;99.90
6110;DHT22;3085;49.444;11.054;2023-02-28T05:38:38;-1.00;99.90
6110;DHT22;3085;49.444;11.054;2023-02-28T05:41:06;-0.90;99.90
6110;DHT22;3085;49.444;11.054;2023-02-28T05:43:34;-0.90;99.90
6110;DHT22;3085;49.444;11.054;2023-02-28T05:46:03;0.90;99.90
6110;DHT22;3085;49.444;11.054;2023-02-28T05:48:31;0.70;99.90
6110;DHT22;3085;49.444;11.054;2023-02-28T05:51:00;0.40;99.90
6110;DHT22;3085;49.444;11.054;2023-02-28T05:53:28;-0.90;99.90
6110;DHT22;3085;49.444;11.054;2023-02-28T05:55:55;-0.70;99.90
6110;DHT22;3085;49.444;11.054;2023-02-28T05:58:22;-0.80;99.90
6110;DHT22;3085;49.444;11.054;2023-02-28T06:00:51;-0.80;99.90
6110;DHT22;3085;49.444;11.054;2023-02-28T06:03:21;-0.30;99.90
6110;DHT22;3085;49.444;11.054;2023-02-28T06:05:48;-0.90;99.90
6110;DHT22;3085;49.444;11.054;2023-02-28T06:08:18;-0.50;99.90
6110;DHT22;3085;49.444;11.054;2023-02-28T06:10:45;-0.80;99.90
6110;DHT22;3085;49.444;11.054;2023-02-28T06:13:14;1.20;99.90
6110;DHT22;3085;49.444;11.054;2023-02-28T06:15:44;-0.80;99.90
6110;DHT22;3085;49.444;11.054;2023-02-28T06:18:12;-0.80;99.90
6110;DHT22;3085;49.444;11.054;2023-02-28T06:20:39;-0.80;99.90
6110;DHT22;3085;49.444;11.054;2023-02-28T06:23:05;-0.70;99.90
6110;DHT22;3085;49.444;11.054;2023-02-28T06:25:35;-0.80;99.90
6110;DHT22;3085;49.444;11.054;2023-02-28T06:28:02;-0.80;99.90
6110;DHT22;3085;49.444;11.054;2023-02-28T06:30:29;-0.90;99.90
6110;DHT22;3085;49.444;11.054;2023-02-28T06:32:59;-0.80;99.90
6110;DHT22;3085;49.444;11.054;2023-02-28T06:35:26;0.90;99.90
6110;DHT22;3085;49.444;11.054;2023-02-28T06:37:53;0.40;99.90
6110;DHT22;3085;49.444;11.054;2023-02-28T06:40:20;-0.30;99.90
6110;DHT22;3085;49.444;11.054;2023-02-28T06:42:49;0.00;99.90
6110;DHT22;3085;49.444;11.054;2023-02-28T06:45:16;0.10;99.90
6110;DHT22;3085;49.444;11.054;2023-02-28T06:47:43;0.20;99.90
6110;DHT22;3085;49.444;11.054;2023-02-28T06:50:11;0.30;99.90
6110;DHT22;3085;49.444;11.054;2023-02-28T06:52:39;0.20;99.90
6110;DHT22;3085;49.444;11.054;2023-02-28T06:55:07;0.10;99.90
6110;DHT22;3085;49.444;11.054;2023-02-28T06:57:35;-0.20;99.90
6110;DHT22;3085;49.444;11.054;2023-02-28T07:00:06;-0.20;99.90
6110;DHT22;3085;49.444;11.054;2023-02-28T07:02:34;-0.30;99.90
6110;DHT22;3085;49.444;11.054;2023-02-28T07:05:01;-0.40;99.90
6110;DHT22;3085;49.444;11.054;2023-02-28T07:07:28;-0.40;99.90
6110;DHT22;3085;49.444;11.054;2023-02-28T07:09:55;-0.20;99.90
6110;DHT22;3085;49.444;11.054;2023-02-28T07:12:22;-0.20;99.90
6110;DHT22;3085;49.444;11.054;2023-02-28T07:14:48;-0.10;99.90
6110;DHT22;3085;49.444;11.054;2023-02-28T07:17:17;-0.20;99.90
6110;DHT22;3085;49.444;11.054;2023-02-28T07:19:43;-0.20;99.90
6110;DHT22;3085;49.444;11.054;2023-02-28T07:22:10;-0.20;99.90
6110;DHT22;3085;49.444;11.054;2023-02-28T07:24:37;-0.10;99.90
6110;DHT22;3085;49.444;11.054;2023-02-28T07:27:04;-0.10;99.90
6110;DHT22;3085;49.444;11.054;2023-02-28T07:29:32;0.00;99.90
6110;DHT22;3085;49.444;11.054;2023-02-28T07:31:59;-0.10;99.90
6110;DHT22;3085;49.444;11.054;2023-02-28T07:34:27;-0.10;99.90
6110;DHT22;3085;49.444;11.054;2023-02-28T07:36:55;0.10;99.90
6110;DHT22;3085;49.444;11.054;2023-02-28T07:39:22;0.00;99.90
6110;DHT22;3085;49.444;11.054;2023-02-28T07:41:49;0.20;99.90
6110;DHT22;3085;49.444;11.054;2023-02-28T07:44:16;0.20;99.90
6110;DHT22;3085;49.444;11.054;2023-02-28T07:46:43;-0.40;99.90
6110;DHT22;3085;49.444;11.054;2023-02-28T07:49:09;0.10;99.90
6110;DHT22;3085;49.444;11.054;2023-02-28T07:51:38;0.20;99.90
6110;DHT22;3085;49.444;11.054;2023-02-28T07:54:05;0.30;99.90
6110;DHT22;3085;49.444;11.054;2023-02-28T07:56:31;0.20;99.90
6110;DHT22;3085;49.444;11.054;2023-02-28T07:58:58;1.90;99.90
6110;DHT22;3085;49.444;11.054;2023-02-28T08:01:27;0.40;99.90
6110;DHT22;3085;49.444;11.054;2023-02-28T08:03:54;0.60;99.90
6110;DHT22;3085;49.444;11.054;2023-02-28T08:06:23;0.40;99.90
6110;DHT22;3085;49.444;11.054;2023-02-28T08:08:53;0.60;99.90
6110;DHT22;3085;49.444;11.054;2023-02-28T08:11:21;0.50;99.90
6110;DHT22;3085;49.444;11.054;2023-02-28T08:13:48;0.60;99.90
6110;DHT22;3085;49.444;11.054;2023-02-28T08:16:15;0.10;99.90
6110;DHT22;3085;49.444;11.054;2023-02-28T08:18:47;0.60;99.90
6110;DHT22;3085;49.444;11.054;2023-02-28T08:21:14;0.80;99.90
6110;DHT22;3085;49.444;11.054;2023-02-28T08:23:41;0.60;99.90
6110;DHT22;3085;49.444;11.054;2023-02-28T08:26:09;0.80;99.90
6110;DHT22;3085;49.444;11.054;2023-02-28T08:28:36;0.80;99.90
6110;DHT22;3085;49.444;11.054;2023-02-28T08:31:07;1.60;99.90
6110;DHT22;3085;49.444;11.054;2023-02-28T08:33:35;0.70;99.90
6110;DHT22;3085;49.444;11.054;2023-02-28T08:36:02;0.90;99.90
6110;DHT22;3085;49.444;11.054;2023-02-28T08:38:29;0.90;99.90
6110;DHT22;3085;49.444;11.054;2023-02-28T08:40:59;0.90;99.90
6110;DHT22;3085;49.444;11.054;2023-02-28T08:43:28;1.00;99.90
6110;DHT22;3085;49.444;11.054;2023-02-28T08:45:56;1.00;99.90
6110;DHT22;3085;49.444;11.054;2023-02-28T08:48:23;1.00;99.90
6110;DHT22;3085;49.444;11.054;2023-02-28T08:50:56;1.10;99.90
6110;DHT22;3085;49.444;11.054;2023-02-28T08:53:24;1.20;99.90
6110;DHT22;3085;49.444;11.054;2023-02-28T08:55:57;1.30;99.90
6110;DHT22;3085;49.444;11.054;2023-02-28T08:58:24;1.30;99.90
6110;DHT22;3085;49.444;11.054;2023-02-28T09:00:53;1.40;99.90
6110;DHT22;3085;49.444;11.054;2023-02-28T09:03:21;2.10;99.90
6110;DHT22;3085;49.444;11.054;2023-02-28T09:05:55;1.40;99.90
6110;DHT22;3085;49.444;11.054;2023-02-28T09:08:23;1.80;99.90
6110;DHT22;3085;49.444;11.054;2023-02-28T09:10:50;1.60;99.90
6110;DHT22;3085;49.444;11.054;2023-02-28T09:13:17;1.70;99.90
6110;DHT22;3085;49.444;11.054;2023-02-28T09:15:44;1.80;99.90
6110;DHT22;3085;49.444;11.054;2023-02-28T09:18:12;1.80;99.90
6110;DHT22;3085;49.444;11.054;2023-02-28T09:20:40;1.80;99.90
6110;DHT22;3085;49.444;11.054;2023-02-28T09:23:07;1.80;99.90
6110;DHT22;3085;49.444;11.054;2023-02-28T09:25:34;1.70;99.90
6110;DHT22;3085;49.444;11.054;2023-02-28T09:28:02;1.90;99.90
6110;DHT22;3085;49.444;11.054;2023-02-28T09:30:29;2.00;99.90
6110;DHT22;3085;49.444;11.054;2023-02-28T09:32:56;2.00;99.90
6110;DHT22;3085;49.444;11.054;2023-02-28T09:35:24;2.10;99.90
6110;DHT22;3085;49.444;11.054;2023-02-28T09:37:53;2.10;99.90
6110;DHT22;3085;49.444;11.054;2023-02-28T09:40:22;2.00;99.90
6110;DHT22;3085;49.444;11.054;2023-02-28T09:42:52;2.30;99.90
6110;DHT22;3085;49.444;11.054;2023-02-28T09:45:24;3.20;99.90
6110;DHT22;3085;49.444;11.054;2023-02-28T09:47:52;2.50;99.90
6110;DHT22;3085;49.444;11.054;2023-02-28T09:50:29;2.40;99.90
6110;DHT22;3085;49.444;11.054;2023-02-28T09:52:59;2.40;99.90
6110;DHT22;3085;49.444;11.054;2023-02-28T09:55:31;2.40;99.90
6110;DHT22;3085;49.444;11.054;2023-02-28T09:58:00;2.40;99.90
6110;DHT22;3085;49.444;11.054;2023-02-28T10:00:32;2.30;99.90
6110;DHT22;3085;49.444;11.054;2023-02-28T10:03:12;2.60;99.90
6110;DHT22;3085;49.444;11.054;2023-02-28T10:05:51;2.50;99.90
6110;DHT22;3085;49.444;11.054;2023-02-28T10:08:22;2.50;99.90
6110;DHT22;3085;49.444;11.054;2023-02-28T10:10:53;2.70;99.90
6110;DHT22;3085;49.444;11.054;2023-02-28T10:13:25;3.60;99.90
6110;DHT22;3085;49.444;11.054;2023-02-28T10:15:58;2.80;99.90
6110;DHT22;3085;49.444;11.054;2023-02-28T10:18:28;2.90;99.90
6110;DHT22;3085;49.444;11.054;2023-02-28T10:20:59;2.80;99.90
6110;DHT22;3085;49.444;11.054;2023-02-28T10:23:28;2.70;99.90
6110;DHT22;3085;49.444;11.054;2023-02-28T10:26:00;2.80;99.90
6110;DHT22;3085;49.444;11.054;2023-02-28T10:28:29;3.00;99.90
6110;DHT22;3085;49.444;11.054;2023-02-28T10:30:57;3.40;99.90
6110;DHT22;3085;49.444;11.054;2023-02-28T10:33:28;3.20;99.90
6110;DHT22;3085;49.444;11.054;2023-02-28T10:35:55;3.30;99.90
6110;DHT22;3085;49.444;11.054;2023-02-28T10:38:25;3.30;99.90
6110;DHT22;3085;49.444;11.054;2023-02-28T10:41:04;3.30;99.90
6110;DHT22;3085;49.444;11.054;2023-02-28T10:43:31;3.40;99.90
6110;DHT22;3085;49.444;11.054;2023-02-28T10:46:01;3.50;99.90
6110;DHT22;3085;49.444;11.054;2023-02-28T10:48:34;3.50;99.90
6110;DHT22;3085;49.444;11.054;2023-02-28T10:51:04;3.40;99.90
6110;DHT22;3085;49.444;11.054;2023-02-28T10:53:38;3.40;99.90
6110;DHT22;3085;49.444;11.054;2023-02-28T10:56:15;3.50;99.90
6110;DHT22;3085;49.444;11.054;2023-02-28T10:58:49;3.50;99.90
6110;DHT22;3085;49.444;11.054;2023-02-28T11:01:18;3.50;99.90
6110;DHT22;3085;49.444;11.054;2023-02-28T11:03:46;3.60;99.90
6110;DHT22;3085;49.444;11.054;2023-02-28T11:06:16;3.70;99.90
6110;DHT22;3085;49.444;11.054;2023-02-28T11:08:48;3.70;99.90
6110;DHT22;3085;49.444;11.054;2023-02-28T11:11:16;3.70;99.90
6110;DHT22;3085;49.444;11.054;2023-02-28T11:13:44;3.80;99.90
6110;DHT22;3085;49.444;11.054;2023-02-28T11:16:13;3.80;99.90
6110;DHT22;3085;49.444;11.054;2023-02-28T11:18:43;4.00;99.90
6110;DHT22;3085;49.444;11.054;2023-02-28T11:21:18;4.10;99.90
6110;DHT22;3085;49.444;11.054;2023-02-28T11:23:49;4.10;99.90
6110;DHT22;3085;49.444;11.054;2023-02-28T11:26:35;4.00;99.90
6110;DHT22;3085;49.444;11.054;2023-02-28T11:29:10;3.90;99.90
6110;DHT22;3085;49.444;11.054;2023-02-28T11:31:38;4.00;99.90
6110;DHT22;3085;49.444;11.054;2023-02-28T11:34:23;4.10;99.90
6110;DHT22;3085;49.444;11.054;2023-02-28T11:36:52;4.10;99.90
6110;DHT22;3085;49.444;11.054;2023-02-28T11:39:21;4.60;99.90
6110;DHT22;3085;49.444;11.054;2023-02-28T11:42:00;4.30;99.90
6110;DHT22;3085;49.444;11.054;2023-02-28T11:44:42;4.30;99.90
6110;DHT22;3085;49.444;11.054;2023-02-28T11:47:17;6.10;99.90
6110;DHT22;3085;49.444;11.054;2023-02-28T11:50:03;4.20;99.90
6110;DHT22;3085;49.444;11.054;2023-02-28T11:52:38;4.30;99.90
6110;DHT22;3085;49.444;11.054;2023-02-28T11:55:16;4.30;99.90
6110;DHT22;3085;49.444;11.054;2023-02-28T11:58:04;4.40;99.90
6110;DHT22;3085;49.444;11.054;2023-02-28T12:00:49;4.40;99.90
6110;DHT22;3085;49.444;11.054;2023-02-28T12:03:27;4.60;99.90
6110;DHT22;3085;49.444;11.054;2023-02-28T12:06:01;4.70;99.90
6110;DHT22;3085;49.444;11.054;2023-02-28T12:08:44;4.50;99.90
6110;DHT22;3085;49.444;11.054;2023-02-28T12:11:23;4.60;99.90
6110;DHT22;3085;49.444;11.054;2023-02-28T12:14:10;4.60;99.90
6110;DHT22;3085;49.444;11.054;2023-02-28T12:16:55;4.60;99.90
6110;DHT22;3085;49.444;11.054;2023-02-28T12:19:28;4.50;99.90
6110;DHT22;3085;49.444;11.054;2023-02-28T12:22:22;5.70;99.90
6110;DHT22;3085;49.444;11.054;2023-02-28T12:25:10;4.50;99.90
6110;DHT22;3085;49.444;11.054;2023-02-28T12:27:47;5.00;99.90
6110;DHT22;3085;49.444;11.054;2023-02-28T12:30:19;4.60;99.90
6110;DHT22;3085;49.444;11.054;2023-02-28T12:32:50;4.70;99.90
6110;DHT22;3085;49.444;11.054;2023-02-28T12:35:23;3.50;99.90
6110;DHT22;3085;49.444;11.054;2023-02-28T12:37:56;4.90;99.90
6110;DHT22;3085;49.444;11.054;2023-02-28T12:40:26;4.90;99.90
6110;DHT22;3085;49.444;11.054;2023-02-28T12:43:02;4.90;99.90
6110;DHT22;3085;49.444;11.054;2023-02-28T12:45:40;4.90;99.90
6110;DHT22;3085;49.444;11.054;2023-02-28T12:48:11;5.00;99.90
6110;DHT22;3085;49.444;11.054;2023-02-28T12:50:40;4.90;99.90
6110;DHT22;3085;49.444;11.054;2023-02-28T12:53:10;6.10;99.90
6110;DHT22;3085;49.444;11.054;2023-02-28T12:55:46;4.90;99.90
6110;DHT22;3085;49.444;11.054;2023-02-28T12:58:23;6.00;99.90
6110;DHT22;3085;49.444;11.054;2023-02-28T13:01:08;4.90;99.90
6110;DHT22;3085;49.444;11.054;2023-02-28T13:04:04;5.10;99.90
6110;DHT22;3085;49.444;11.054;2023-02-28T13:06:59;5.20;99.90
6110;DHT22;3085;49.444;11.054;2023-02-28T13:09:32;6.20;99.90
6110;DHT22;3085;49.444;11.054;2023-02-28T13:11:59;5.30;99.90
6110;DHT22;3085;49.444;11.054;2023-02-28T13:14:34;5.30;99.90
6110;DHT22;3085;49.444;11.054;2023-02-28T13:17:10;5.20;99.90
6110;DHT22;3085;49.444;11.054;2023-02-28T13:19:40;5.20;99.90
6110;DHT22;3085;49.444;11.054;2023-02-28T13:22:17;5.30;99.90
6110;DHT22;3085;49.444;11.054;2023-02-28T13:24:47;4.70;99.90
6110;DHT22;3085;49.444;11.054;2023-02-28T13:27:24;5.20;99.90
6110;DHT22;3085;49.444;11.054;2023-02-28T13:29:59;5.40;99.90
6110;DHT22;3085;49.444;11.054;2023-02-28T13:32:33;6.30;99.90
6110;DHT22;3085;49.444;11.054;2023-02-28T13:35:42;5.30;99.90
6110;DHT22;3085;49.444;11.054;2023-02-28T13:38:22;5.50;99.90
6110;DHT22;3085;49.444;11.054;2023-02-28T13:40:50;5.90;99.90
6110;DHT22;3085;49.444;11.054;2023-02-28T13:43:17;5.70;99.90
6110;DHT22;3085;49.444;11.054;2023-02-28T13:46:10;5.80;99.90
6110;DHT22;3085;49.444;11.054;2023-02-28T13:48:38;5.70;99.90
6110;DHT22;3085;49.444;11.054;2023-02-28T13:51:38;4.20;99.90
6110;DHT22;3085;49.444;11.054;2023-02-28T13:54:19;5.70;99.90
6110;DHT22;3085;49.444;11.054;2023-02-28T13:56:56;5.60;99.90
6110;DHT22;3085;49.444;11.054;2023-02-28T13:59:32;5.60;99.90
6110;DHT22;3085;49.444;11.054;2023-02-28T14:02:27;5.70;99.90
6110;DHT22;3085;49.444;11.054;2023-02-28T14:05:04;5.80;99.90
6110;DHT22;3085;49.444;11.054;2023-02-28T14:07:33;5.70;99.90
6110;DHT22;3085;49.444;11.054;2023-02-28T14:10:07;5.80;99.90
6110;DHT22;3085;49.444;11.054;2023-02-28T14:12:58;5.80;99.90
6110;DHT22;3085;49.444;11.054;2023-02-28T14:15:45;5.70;99.90
6110;DHT22;3085;49.444;11.054;2023-02-28T14:18:29;5.70;99.90
6110;DHT22;3085;49.444;11.054;2023-02-28T14:21:21;5.80;99.90
6110;DHT22;3085;49.444;11.054;2023-02-28T14:24:23;6.80;99.90
6110;DHT22;3085;49.444;11.054;2023-02-28T14:27:14;5.90;99.90
6110;DHT22;3085;49.444;11.054;2023-02-28T14:32:41;5.90;99.90
6110;DHT22;3085;49.444;11.054;2023-02-28T14:35:35;5.90;99.90
6110;DHT22;3085;49.444;11.054;2023-02-28T14:38:18;5.90;99.90
6110;DHT22;3085;49.444;11.054;2023-02-28T14:40:47;6.00;99.90
6110;DHT22;3085;49.444;11.054;2023-02-28T14:43:21;6.00;99.90
6110;DHT22;3085;49.444;11.054;2023-02-28T14:45:50;7.40;99.90
6110;DHT22;3085;49.444;11.054;2023-02-28T14:48:19;5.90;99.90
6110;DHT22;3085;49.444;11.054;2023-02-28T14:50:53;5.90;99.90
6110;DHT22;3085;49.444;11.054;2023-02-28T14:53:22;6.00;99.90
6110;DHT22;3085;49.444;11.054;2023-02-28T14:55:49;5.90;99.90
6110;DHT22;3085;49.444;11.054;2023-02-28T14:58:25;5.90;99.90
6110;DHT22;3085;49.444;11.054;2023-02-28T15:00:55;7.80;99.90
6110;DHT22;3085;49.444;11.054;2023-02-28T15:03:23;6.00;99.90
6110;DHT22;3085;49.444;11.054;2023-02-28T15:05:56;6.10;99.90
6110;DHT22;3085;49.444;11.054;2023-02-28T15:08:24;5.90;99.90
6110;DHT22;3085;49.444;11.054;2023-02-28T15:10:56;5.70;99.90
6110;DHT22;3085;49.444;11.054;2023-02-28T15:13:29;5.70;99.90
6110;DHT22;3085;49.444;11.054;2023-02-28T15:16:02;5.90;99.90
6110;DHT22;3085;49.444;11.054;2023-02-28T15:18:36;5.80;99.90
6110;DHT22;3085;49.444;11.054;2023-02-28T15:21:07;5.90;99.90
6110;DHT22;3085;49.444;11.054;2023-02-28T15:23:38;5.70;99.90
6110;DHT22;3085;49.444;11.054;2023-02-28T15:26:09;5.60;99.90
6110;DHT22;3085;49.444;11.054;2023-02-28T15:28:37;5.70;99.90
6110;DHT22;3085;49.444;11.054;2023-02-28T15:31:19;5.70;99.90
6110;DHT22;3085;49.444;11.054;2023-02-28T15:33:53;5.70;99.90
6110;DHT22;3085;49.444;11.054;2023-02-28T15:36:25;5.90;99.90
6110;DHT22;3085;49.444;11.054;2023-02-28T15:38:54;6.10;99.90
6110;DHT22;3085;49.444;11.054;2023-02-28T15:41:24;6.40;99.90
6110;DHT22;3085;49.444;11.054;2023-02-28T15:46:59;7.10;99.90
6110;DHT22;3085;49.444;11.054;2023-02-28T15:49:29;7.30;99.90
6110;DHT22;3085;49.444;11.054;2023-02-28T15:52:00;7.50;99.90
6110;DHT22;3085;49.444;11.054;2023-02-28T15:54:29;7.80;99.90
6110;DHT22;3085;49.444;11.054;2023-02-28T15:56:58;7.50;99.90
6110;DHT22;3085;49.444;11.054;2023-02-28T15:59:28;7.50;99.90
6110;DHT22;3085;49.444;11.054;2023-02-28T16:02:13;7.20;99.90
6110;DHT22;3085;49.444;11.054;2023-02-28T16:04:59;7.20;99.90
6110;DHT22;3085;49.444;11.054;2023-02-28T16:07:28;7.10;99.90
6110;DHT22;3085;49.444;11.054;2023-02-28T16:09:55;6.80;99.90
6110;DHT22;3085;49.444;11.054;2023-02-28T16:12:28;6.60;99.90
6110;DHT22;3085;49.444;11.054;2023-02-28T16:14:58;6.40;99.90
6110;DHT22;3085;49.444;11.054;2023-02-28T16:17:28;6.00;99.90
6110;DHT22;3085;49.444;11.054;2023-02-28T16:19:55;5.80;99.90
6110;DHT22;3085;49.444;11.054;2023-02-28T16:22:23;5.70;99.90
6110;DHT22;3085;49.444;11.054;2023-02-28T16:24:52;5.50;99.90
6110;DHT22;3085;49.444;11.054;2023-02-28T16:27:21;5.30;99.90
6110;DHT22;3085;49.444;11.054;2023-02-28T16:29:50;5.30;99.90
6110;DHT22;3085;49.444;11.054;2023-02-28T16:32:17;6.10;99.90
6110;DHT22;3085;49.444;11.054;2023-02-28T16:34:44;4.90;99.90